sensor_id;sensor_type;location;lat;lon;timestamp;P1;P2;P0
69205;PMS7003;56319;48.920;2.332;2023-03-31T00:01:26;2.00;1.00;1.00
69205;PMS7003;56319;48.920;2.332;2023-03-31T00:03:52;0.25;0.25;0.25
69205;PMS7003;56319;48.920;2.332;2023-03-31T00:06:26;0.50;0.50;0.00
69205;PMS7003;56319;48.920;2.332;2023-03-31T00:08:52;0.50;0.50;0.00
69205;PMS7003;56319;48.920;2.332;2023-03-31T00:11:18;1.75;1.00;0.00
69205;PMS7003;56319;48.920;2.332;2023-03-31T00:13:45;2.50;1.00;1.00
69205;PMS7003;56319;48.920;2.332;2023-03-31T00:16:11;1.00;1.00;1.00
69205;PMS7003;56319;48.920;2.332;2023-03-31T00:18:37;0.25;0.25;0.00
69205;PMS7003;56319;48.920;2.332;2023-03-31T00:21:06;1.00;1.00;1.00
69205;PMS7003;56319;48.920;2.332;2023-03-31T00:23:38;2.00;0.25;0.00
69205;PMS7003;56319;48.920;2.332;2023-03-31T00:26:05;0.00;0.00;0.00
69205;PMS7003;56319;48.920;2.332;2023-03-31T00:28:31;0.00;0.00;0.00
69205;PMS7003;56319;48.920;2.332;2023-03-31T00:30:59;0.00;0.00;0.00
69205;PMS7003;56319;48.920;2.332;2023-03-31T00:33:26;0.75;0.75;0.00
69205;PMS7003;56319;48.920;2.332;2023-03-31T00:35:54;1.25;1.00;1.00
69205;PMS7003;56319;48.920;2.332;2023-03-31T00:38:19;1.75;1.00;1.00
69205;PMS7003;56319;48.920;2.332;2023-03-31T00:40:46;2.00;1.00;1.00
69205;PMS7003;56319;48.920;2.332;2023-03-31T00:43:20;1.25;0.50;0.25
69205;PMS7003;56319;48.920;2.332;2023-03-31T00:46:04;1.00;0.00;0.00
69205;PMS7003;56319;48.920;2.332;2023-03-31T00:48:41;0.00;0.00;0.00
69205;PMS7003;56319;48.920;2.332;2023-03-31T00:51:13;0.00;0.00;0.00
69205;PMS7003;56319;48.920;2.332;2023-03-31T00:53:38;1.00;0.00;0.00
69205;PMS7003;56319;48.920;2.332;2023-03-31T00:56:06;1.00;1.00;1.00
69205;PMS7003;56319;48.920;2.332;2023-03-31T00:58:37;1.25;1.00;1.00
69205;PMS7003;56319;48.920;2.332;2023-03-31T01:01:08;1.00;1.00;1.00
69205;PMS7003;56319;48.920;2.332;2023-03-31T01:03:38;1.75;0.00;0.00
69205;PMS7003;56319;48.920;2.332;2023-03-31T01:06:06;1.75;0.75;0.75
69205;PMS7003;56319;48.920;2.332;2023-03-31T01:08:34;3.00;1.00;0.25
69205;PMS7003;56319;48.920;2.332;2023-03-31T01:11:03;0.00;0.00;0.00
69205;PMS7003;56319;48.920;2.332;2023-03-31T01:13:31;1.75;1.00;0.00
69205;PMS7003;56319;48.920;2.332;2023-03-31T01:15:59;1.00;1.00;0.75
69205;PMS7003;56319;48.920;2.332;2023-03-31T01:18:25;3.00;0.75;0.00
69205;PMS7003;56319;48.920;2.332;2023-03-31T01:26:48;0.25;0.25;0.25
69205;PMS7003;56319;48.920;2.332;2023-03-31T01:35:41;0.75;0.75;0.75
69205;PMS7003;56319;48.920;2.332;2023-03-31T01:41:41;0.00;0.00;0.00
69205;PMS7003;56319;48.920;2.332;2023-03-31T01:44:34;1.00;0.00;0.00
69205;PMS7003;56319;48.920;2.332;2023-03-31T01:47:21;0.50;0.25;0.00
69205;PMS7003;56319;48.920;2.332;2023-03-31T01:52:53;1.00;0.00;0.00
69205;PMS7003;56319;48.920;2.332;2023-03-31T01:55:33;1.50;1.00;0.00
69205;PMS7003;56319;48.920;2.332;2023-03-31T01:58:11;0.00;0.00;0.00
69205;PMS7003;56319;48.920;2.332;2023-03-31T02:00:45;3.50;0.00;0.00
69205;PMS7003;56319;48.920;2.332;2023-03-31T02:03:18;1.00;1.00;0.25
69205;PMS7003;56319;48.920;2.332;2023-03-31T02:05:53;0.00;0.00;0.00
69205;PMS7003;56319;48.920;2.332;2023-03-31T02:08:24;0.00;0.00;0.00
69205;PMS7003;56319;48.920;2.332;2023-03-31T02:10:55;0.75;0.75;0.75
69205;PMS7003;56319;48.920;2.332;2023-03-31T02:13:22;0.25;0.25;0.00
69205;PMS7003;56319;48.920;2.332;2023-03-31T02:15:52;0.25;0.00;0.00
69205;PMS7003;56319;48.920;2.332;2023-03-31T02:18:22;1.00;0.00;0.00
69205;PMS7003;56319;48.920;2.332;2023-03-31T02:20:52;0.00;0.00;0.00
69205;PMS7003;56319;48.920;2.332;2023-03-31T02:23:22;1.00;0.00;0.00
69205;PMS7003;56319;48.920;2.332;2023-03-31T02:25:51;1.00;1.00;1.00
69205;PMS7003;56319;48.920;2.332;2023-03-31T02:28:22;1.00;1.00;1.00
69205;PMS7003;56319;48.920;2.332;2023-03-31T02:33:45;1.00;1.00;0.75
69205;PMS7003;56319;48.920;2.332;2023-03-31T02:36:11;0.50;0.50;0.00
69205;PMS7003;56319;48.920;2.332;2023-03-31T02:38:40;1.00;1.00;1.00
69205;PMS7003;56319;48.920;2.332;2023-03-31T02:41:10;1.75;0.00;0.00
69205;PMS7003;56319;48.920;2.332;2023-03-31T02:43:36;0.00;0.00;0.00
69205;PMS7003;56319;48.920;2.332;2023-03-31T02:46:02;1.50;1.00;0.00
69205;PMS7003;56319;48.920;2.332;2023-03-31T02:48:28;0.75;0.00;0.00
69205;PMS7003;56319;48.920;2.332;2023-03-31T02:51:06;1.25;0.25;0.00
69205;PMS7003;56319;48.920;2.332;2023-03-31T03:02:49;1.25;0.25;0.00
69205;PMS7003;56319;48.920;2.332;2023-03-31T03:05:40;1.25;1.00;0.25
69205;PMS7003;56319;48.920;2.332;2023-03-31T03:08:22;1.50;0.75;0.00
69205;PMS7003;56319;48.920;2.332;2023-03-31T03:13:47;0.50;0.00;0.00
69205;PMS7003;56319;48.920;2.332;2023-03-31T03:16:18;0.25;0.25;0.00
69205;PMS7003;56319;48.920;2.332;2023-03-31T03:18:55;1.50;1.00;1.00
69205;PMS7003;56319;48.920;2.332;2023-03-31T03:21:23;0.00;0.00;0.00
69205;PMS7003;56319;48.920;2.332;2023-03-31T03:23:50;1.00;1.00;1.00
69205;PMS7003;56319;48.920;2.332;2023-03-31T03:26:17;0.75;0.75;0.00
69205;PMS7003;56319;48.920;2.332;2023-03-31T03:28:46;3.00;1.00;0.00
69205;PMS7003;56319;48.920;2.332;2023-03-31T03:31:13;1.00;1.00;0.00
69205;PMS7003;56319;48.920;2.332;2023-03-31T03:33:40;0.00;0.00;0.00
69205;PMS7003;56319;48.920;2.332;2023-03-31T03:36:06;1.50;1.00;1.00
69205;PMS7003;56319;48.920;2.332;2023-03-31T03:38:32;1.00;1.00;0.75
69205;PMS7003;56319;48.920;2.332;2023-03-31T03:40:57;0.25;0.25;0.00
69205;PMS7003;56319;48.920;2.332;2023-03-31T03:43:23;1.50;0.00;0.00
69205;PMS7003;56319;48.920;2.332;2023-03-31T03:45:48;3.50;1.00;0.75
69205;PMS7003;56319;48.920;2.332;2023-03-31T03:48:15;1.50;0.00;0.00
69205;PMS7003;56319;48.920;2.332;2023-03-31T03:50:40;2.00;0.25;0.25
69205;PMS7003;56319;48.920;2.332;2023-03-31T03:53:06;1.00;1.00;0.75
69205;PMS7003;56319;48.920;2.332;2023-03-31T03:55:33;1.50;0.75;0.75
69205;PMS7003;56319;48.920;2.332;2023-03-31T03:57:58;0.50;0.00;0.00
69205;PMS7003;56319;48.920;2.332;2023-03-31T04:00:24;3.00;1.00;0.50
69205;PMS7003;56319;48.920;2.332;2023-03-31T04:02:50;2.00;0.00;0.00
69205;PMS7003;56319;48.920;2.332;2023-03-31T04:05:15;0.75;0.75;0.75
69205;PMS7003;56319;48.920;2.332;2023-03-31T04:07:41;1.00;1.00;0.50
69205;PMS7003;56319;48.920;2.332;2023-03-31T04:10:07;1.50;1.00;1.00
69205;PMS7003;56319;48.920;2.332;2023-03-31T04:12:33;3.00;1.00;0.00
69205;PMS7003;56319;48.920;2.332;2023-03-31T04:15:00;0.00;0.00;0.00
69205;PMS7003;56319;48.920;2.332;2023-03-31T04:17:26;1.00;1.00;1.00
69205;PMS7003;56319;48.920;2.332;2023-03-31T04:20:11;0.50;0.50;0.50
69205;PMS7003;56319;48.920;2.332;2023-03-31T04:22:37;0.75;0.00;0.00
69205;PMS7003;56319;48.920;2.332;2023-03-31T04:25:06;1.00;1.00;0.75
69205;PMS7003;56319;48.920;2.332;2023-03-31T04:27:40;1.50;1.00;1.00
69205;PMS7003;56319;48.920;2.332;2023-03-31T04:30:15;0.25;0.00;0.00
69205;PMS7003;56319;48.920;2.332;2023-03-31T04:33:01;1.50;0.75;0.00
69205;PMS7003;56319;48.920;2.332;2023-03-31T04:35:28;1.75;1.00;0.50
69205;PMS7003;56319;48.920;2.332;2023-03-31T04:38:15;0.00;0.00;0.00
69205;PMS7003;56319;48.920;2.332;2023-03-31T04:40:43;1.00;1.00;0.75
69205;PMS7003;56319;48.920;2.332;2023-03-31T04:43:10;3.50;1.00;0.75
69205;PMS7003;56319;48.920;2.332;2023-03-31T04:45:35;1.50;0.25;0.00
69205;PMS7003;56319;48.920;2.332;2023-03-31T04:48:01;1.00;1.00;1.00
69205;PMS7003;56319;48.920;2.332;2023-03-31T04:50:26;0.00;0.00;0.00
69205;PMS7003;56319;48.920;2.332;2023-03-31T04:52:52;2.50;0.75;0.50
69205;PMS7003;56319;48.920;2.332;2023-03-31T04:55:18;1.75;0.75;0.50
69205;PMS7003;56319;48.920;2.332;2023-03-31T04:57:43;2.00;2.00;1.00
69205;PMS7003;56319;48.920;2.332;2023-03-31T05:00:09;0.50;0.50;0.50
69205;PMS7003;56319;48.920;2.332;2023-03-31T05:02:35;1.75;1.75;1.00
69205;PMS7003;56319;48.920;2.332;2023-03-31T05:05:01;2.50;1.25;1.00
69205;PMS7003;56319;48.920;2.332;2023-03-31T05:07:26;2.25;0.00;0.00
69205;PMS7003;56319;48.920;2.332;2023-03-31T05:09:52;1.00;1.00;0.75
69205;PMS7003;56319;48.920;2.332;2023-03-31T05:12:17;0.75;0.75;0.75
69205;PMS7003;56319;48.920;2.332;2023-03-31T05:14:42;0.00;0.00;0.00
69205;PMS7003;56319;48.920;2.332;2023-03-31T05:17:08;1.00;1.00;1.00
69205;PMS7003;56319;48.920;2.332;2023-03-31T05:19:34;0.25;0.25;0.00
69205;PMS7003;56319;48.920;2.332;2023-03-31T05:21:59;2.25;1.00;1.00
69205;PMS7003;56319;48.920;2.332;2023-03-31T05:24:25;1.00;0.00;0.00
69205;PMS7003;56319;48.920;2.332;2023-03-31T05:26:52;2.00;1.00;1.00
69205;PMS7003;56319;48.920;2.332;2023-03-31T05:29:18;1.75;1.00;1.00
69205;PMS7003;56319;48.920;2.332;2023-03-31T05:31:46;3.00;2.00;1.00
69205;PMS7003;56319;48.920;2.332;2023-03-31T05:34:12;2.25;1.75;1.25
69205;PMS7003;56319;48.920;2.332;2023-03-31T05:36:38;1.25;1.00;1.00
69205;PMS7003;56319;48.920;2.332;2023-03-31T05:39:04;1.50;1.00;0.00
69205;PMS7003;56319;48.920;2.332;2023-03-31T05:41:30;3.75;2.50;1.00
69205;PMS7003;56319;48.920;2.332;2023-03-31T05:43:55;1.00;1.00;1.00
69205;PMS7003;56319;48.920;2.332;2023-03-31T05:46:21;1.00;1.00;0.00
69205;PMS7003;56319;48.920;2.332;2023-03-31T05:48:46;1.25;1.00;0.25
69205;PMS7003;56319;48.920;2.332;2023-03-31T05:51:12;0.75;0.75;0.00
69205;PMS7003;56319;48.920;2.332;2023-03-31T05:53:37;1.00;1.00;0.75
69205;PMS7003;56319;48.920;2.332;2023-03-31T05:56:03;1.00;1.00;0.75
69205;PMS7003;56319;48.920;2.332;2023-03-31T05:58:32;2.00;0.50;0.50
69205;PMS7003;56319;48.920;2.332;2023-03-31T06:01:00;1.25;0.00;0.00
69205;PMS7003;56319;48.920;2.332;2023-03-31T06:03:38;3.75;1.00;1.00
69205;PMS7003;56319;48.920;2.332;2023-03-31T06:06:05;1.25;1.00;0.00
69205;PMS7003;56319;48.920;2.332;2023-03-31T06:08:32;1.75;0.25;0.00
69205;PMS7003;56319;48.920;2.332;2023-03-31T06:10:59;1.25;1.25;1.00
69205;PMS7003;56319;48.920;2.332;2023-03-31T06:13:24;1.00;1.00;1.00
69205;PMS7003;56319;48.920;2.332;2023-03-31T06:15:52;2.50;1.75;1.25
69205;PMS7003;56319;48.920;2.332;2023-03-31T06:18:18;3.00;1.50;1.00
69205;PMS7003;56319;48.920;2.332;2023-03-31T06:20:44;1.00;1.00;1.00
69205;PMS7003;56319;48.920;2.332;2023-03-31T06:23:09;2.00;2.00;1.00
69205;PMS7003;56319;48.920;2.332;2023-03-31T06:25:36;0.75;0.75;0.50
69205;PMS7003;56319;48.920;2.332;2023-03-31T06:28:02;1.00;1.00;0.50
69205;PMS7003;56319;48.920;2.332;2023-03-31T06:30:28;1.00;1.00;0.50
69205;PMS7003;56319;48.920;2.332;2023-03-31T06:32:53;3.75;0.25;0.00
69205;PMS7003;56319;48.920;2.332;2023-03-31T06:35:19;1.75;1.75;1.00
69205;PMS7003;56319;48.920;2.332;2023-03-31T06:37:44;4.25;1.00;1.00
69205;PMS7003;56319;48.920;2.332;2023-03-31T06:40:10;3.00;1.00;0.75
69205;PMS7003;56319;48.920;2.332;2023-03-31T06:42:36;2.00;2.00;1.00
69205;PMS7003;56319;48.920;2.332;2023-03-31T06:45:02;1.75;1.75;1.00
69205;PMS7003;56319;48.920;2.332;2023-03-31T06:47:27;1.50;1.50;0.00
69205;PMS7003;56319;48.920;2.332;2023-03-31T06:49:52;4.00;0.50;0.00
69205;PMS7003;56319;48.920;2.332;2023-03-31T06:52:18;3.00;3.00;2.00
69205;PMS7003;56319;48.920;2.332;2023-03-31T06:54:43;3.50;3.00;2.00
69205;PMS7003;56319;48.920;2.332;2023-03-31T06:57:09;4.50;1.25;1.00
69205;PMS7003;56319;48.920;2.332;2023-03-31T06:59:35;3.00;1.25;1.00
69205;PMS7003;56319;48.920;2.332;2023-03-31T07:02:00;3.75;2.00;1.25
69205;PMS7003;56319;48.920;2.332;2023-03-31T07:04:27;5.25;4.00;1.00
69205;PMS7003;56319;48.920;2.332;2023-03-31T07:06:53;2.50;2.00;1.00
69205;PMS7003;56319;48.920;2.332;2023-03-31T07:09:18;1.00;1.00;1.00
69205;PMS7003;56319;48.920;2.332;2023-03-31T07:11:47;4.25;3.00;2.00
69205;PMS7003;56319;48.920;2.332;2023-03-31T07:14:13;3.25;2.00;1.00
69205;PMS7003;56319;48.920;2.332;2023-03-31T07:16:38;5.75;3.75;1.75
69205;PMS7003;56319;48.920;2.332;2023-03-31T07:19:05;19.00;10.00;4.00
69205;PMS7003;56319;48.920;2.332;2023-03-31T07:21:31;7.75;6.00;3.00
69205;PMS7003;56319;48.920;2.332;2023-03-31T07:23:56;9.25;4.50;3.00
69205;PMS7003;56319;48.920;2.332;2023-03-31T07:26:22;10.50;5.75;3.00
69205;PMS7003;56319;48.920;2.332;2023-03-31T07:28:49;4.75;4.25;2.00
69205;PMS7003;56319;48.920;2.332;2023-03-31T07:31:16;10.25;5.00;3.00
69205;PMS7003;56319;48.920;2.332;2023-03-31T07:33:42;6.00;4.00;2.75
69205;PMS7003;56319;48.920;2.332;2023-03-31T07:36:08;5.25;5.00;2.50
69205;PMS7003;56319;48.920;2.332;2023-03-31T07:38:35;6.25;3.00;1.75
69205;PMS7003;56319;48.920;2.332;2023-03-31T07:41:00;6.50;5.00;2.75
69205;PMS7003;56319;48.920;2.332;2023-03-31T07:43:26;4.00;2.00;1.50
69205;PMS7003;56319;48.920;2.332;2023-03-31T07:45:52;4.50;2.25;2.00
69205;PMS7003;56319;48.920;2.332;2023-03-31T07:48:17;5.00;2.50;1.50
69205;PMS7003;56319;48.920;2.332;2023-03-31T07:50:43;6.75;2.25;1.00
69205;PMS7003;56319;48.920;2.332;2023-03-31T07:53:09;6.50;3.00;2.00
69205;PMS7003;56319;48.920;2.332;2023-03-31T07:55:34;3.00;3.00;1.75
69205;PMS7003;56319;48.920;2.332;2023-03-31T07:58:00;6.25;3.50;2.00
69205;PMS7003;56319;48.920;2.332;2023-03-31T08:00:25;9.25;3.25;2.00
69205;PMS7003;56319;48.920;2.332;2023-03-31T08:02:51;8.00;3.75;2.00
69205;PMS7003;56319;48.920;2.332;2023-03-31T08:05:17;5.75;3.75;2.00
69205;PMS7003;56319;48.920;2.332;2023-03-31T08:07:44;5.75;3.75;3.00
69205;PMS7003;56319;48.920;2.332;2023-03-31T08:10:12;6.75;4.00;2.25
69205;PMS7003;56319;48.920;2.332;2023-03-31T08:12:41;3.50;2.00;1.00
69205;PMS7003;56319;48.920;2.332;2023-03-31T08:15:07;6.00;2.75;1.25
69205;PMS7003;56319;48.920;2.332;2023-03-31T08:17:33;6.50;3.75;2.75
69205;PMS7003;56319;48.920;2.332;2023-03-31T08:19:59;5.00;2.00;1.00
69205;PMS7003;56319;48.920;2.332;2023-03-31T08:22:25;8.00;4.00;2.00
69205;PMS7003;56319;48.920;2.332;2023-03-31T08:24:51;7.75;3.00;2.00
69205;PMS7003;56319;48.920;2.332;2023-03-31T08:27:17;5.00;2.00;1.00
69205;PMS7003;56319;48.920;2.332;2023-03-31T08:29:42;6.75;3.25;2.00
69205;PMS7003;56319;48.920;2.332;2023-03-31T08:32:08;9.25;3.00;2.00
69205;PMS7003;56319;48.920;2.332;2023-03-31T08:34:33;9.75;4.25;1.75
69205;PMS7003;56319;48.920;2.332;2023-03-31T08:36:59;5.00;2.00;1.00
69205;PMS7003;56319;48.920;2.332;2023-03-31T08:39:24;5.50;4.25;2.25
69205;PMS7003;56319;48.920;2.332;2023-03-31T08:41:55;6.75;3.00;2.00
69205;PMS7003;56319;48.920;2.332;2023-03-31T08:44:33;10.00;2.00;2.00
69205;PMS7003;56319;48.920;2.332;2023-03-31T08:47:02;3.00;3.00;2.00
69205;PMS7003;56319;48.920;2.332;2023-03-31T08:49:38;4.75;4.00;2.00
69205;PMS7003;56319;48.920;2.332;2023-03-31T08:52:13;7.25;5.75;2.50
69205;PMS7003;56319;48.920;2.332;2023-03-31T08:54:45;8.50;2.75;2.00
69205;PMS7003;56319;48.920;2.332;2023-03-31T08:57:16;6.00;5.00;2.75
69205;PMS7003;56319;48.920;2.332;2023-03-31T08:59:46;4.00;2.75;1.75
69205;PMS7003;56319;48.920;2.332;2023-03-31T09:02:15;3.25;2.00;1.00
69205;PMS7003;56319;48.920;2.332;2023-03-31T09:05:14;5.00;3.00;2.00
69205;PMS7003;56319;48.920;2.332;2023-03-31T09:08:05;4.75;2.00;1.00
69205;PMS7003;56319;48.920;2.332;2023-03-31T09:10:53;5.50;2.50;1.50
69205;PMS7003;56319;48.920;2.332;2023-03-31T09:16:29;5.00;2.00;1.00
69205;PMS7003;56319;48.920;2.332;2023-03-31T09:19:01;4.50;2.50;1.25
69205;PMS7003;56319;48.920;2.332;2023-03-31T09:21:31;7.75;3.75;2.00
69205;PMS7003;56319;48.920;2.332;2023-03-31T09:26:53;4.75;2.50;1.75
69205;PMS7003;56319;48.920;2.332;2023-03-31T09:29:25;4.00;1.75;1.00
69205;PMS7003;56319;48.920;2.332;2023-03-31T09:32:12;2.00;2.00;1.00
69205;PMS7003;56319;48.920;2.332;2023-03-31T09:34:40;1.00;1.00;1.00
69205;PMS7003;56319;48.920;2.332;2023-03-31T09:37:08;3.00;1.25;1.00
69205;PMS7003;56319;48.920;2.332;2023-03-31T09:39:35;2.50;2.25;1.25
69205;PMS7003;56319;48.920;2.332;2023-03-31T09:42:01;2.50;2.00;1.00
69205;PMS7003;56319;48.920;2.332;2023-03-31T09:44:38;2.00;1.25;1.00
69205;PMS7003;56319;48.920;2.332;2023-03-31T09:47:12;4.00;4.00;1.75
69205;PMS7003;56319;48.920;2.332;2023-03-31T09:49:45;1.75;1.00;1.00
69205;PMS7003;56319;48.920;2.332;2023-03-31T09:52:14;5.50;2.00;0.75
69205;PMS7003;56319;48.920;2.332;2023-03-31T09:55:14;1.00;1.00;1.00
69205;PMS7003;56319;48.920;2.332;2023-03-31T09:57:44;2.50;1.00;1.00
69205;PMS7003;56319;48.920;2.332;2023-03-31T10:00:14;1.25;1.00;1.00
69205;PMS7003;56319;48.920;2.332;2023-03-31T10:02:47;3.00;2.00;0.50
69205;PMS7003;56319;48.920;2.332;2023-03-31T10:10:55;2.00;1.50;1.00
69205;PMS7003;56319;48.920;2.332;2023-03-31T10:16:28;4.50;1.75;1.00
69205;PMS7003;56319;48.920;2.332;2023-03-31T10:19:10;1.00;1.00;0.00
69205;PMS7003;56319;48.920;2.332;2023-03-31T10:21:37;1.50;1.00;1.00
69205;PMS7003;56319;48.920;2.332;2023-03-31T10:24:07;2.25;1.00;1.00
69205;PMS7003;56319;48.920;2.332;2023-03-31T10:26:34;2.00;1.50;1.00
69205;PMS7003;56319;48.920;2.332;2023-03-31T10:29:00;3.25;0.75;0.25
69205;PMS7003;56319;48.920;2.332;2023-03-31T10:31:32;1.00;1.00;1.00
69205;PMS7003;56319;48.920;2.332;2023-03-31T10:34:04;3.75;1.25;1.00
69205;PMS7003;56319;48.920;2.332;2023-03-31T10:36:33;2.00;1.75;1.00
69205;PMS7003;56319;48.920;2.332;2023-03-31T10:38:59;3.00;2.00;0.75
69205;PMS7003;56319;48.920;2.332;2023-03-31T10:41:31;0.75;0.75;0.75
69205;PMS7003;56319;48.920;2.332;2023-03-31T10:43:58;0.00;0.00;0.00
69205;PMS7003;56319;48.920;2.332;2023-03-31T10:49:23;2.25;1.00;0.25
69205;PMS7003;56319;48.920;2.332;2023-03-31T10:51:51;2.00;1.00;0.25
69205;PMS7003;56319;48.920;2.332;2023-03-31T10:54:20;1.50;1.00;1.00
69205;PMS7003;56319;48.920;2.332;2023-03-31T10:56:46;1.00;1.00;0.25
69205;PMS7003;56319;48.920;2.332;2023-03-31T11:02:19;2.00;1.00;1.00
69205;PMS7003;56319;48.920;2.332;2023-03-31T11:07:53;2.00;2.00;1.00
69205;PMS7003;56319;48.920;2.332;2023-03-31T11:10:33;1.25;1.00;0.75
69205;PMS7003;56319;48.920;2.332;2023-03-31T11:13:25;1.00;1.00;0.00
69205;PMS7003;56319;48.920;2.332;2023-03-31T11:16:17;1.75;0.75;0.50
69205;PMS7003;56319;48.920;2.332;2023-03-31T11:19:10;1.00;1.00;1.00
69205;PMS7003;56319;48.920;2.332;2023-03-31T11:22:06;0.50;0.50;0.00
69205;PMS7003;56319;48.920;2.332;2023-03-31T11:24:55;1.00;1.00;1.00
69205;PMS7003;56319;48.920;2.332;2023-03-31T11:27:49;2.00;0.00;0.00
69205;PMS7003;56319;48.920;2.332;2023-03-31T11:30:27;2.75;1.00;0.75
69205;PMS7003;56319;48.920;2.332;2023-03-31T11:36:15;1.00;1.00;0.00
69205;PMS7003;56319;48.920;2.332;2023-03-31T11:39:11;3.75;1.00;1.00
69205;PMS7003;56319;48.920;2.332;2023-03-31T11:41:48;0.00;0.00;0.00
69205;PMS7003;56319;48.920;2.332;2023-03-31T11:44:17;1.00;1.00;1.00
69205;PMS7003;56319;48.920;2.332;2023-03-31T11:46:47;0.00;0.00;0.00
69205;PMS7003;56319;48.920;2.332;2023-03-31T11:49:22;0.25;0.00;0.00
69205;PMS7003;56319;48.920;2.332;2023-03-31T11:51:54;0.50;0.25;0.00
69205;PMS7003;56319;48.920;2.332;2023-03-31T11:54:27;0.00;0.00;0.00
69205;PMS7003;56319;48.920;2.332;2023-03-31T11:57:00;1.25;1.25;1.00
69205;PMS7003;56319;48.920;2.332;2023-03-31T11:59:31;0.00;0.00;0.00
69205;PMS7003;56319;48.920;2.332;2023-03-31T12:04:48;0.50;0.00;0.00
69205;PMS7003;56319;48.920;2.332;2023-03-31T12:13:08;0.75;0.75;0.00
69205;PMS7003;56319;48.920;2.332;2023-03-31T12:16:05;2.75;0.00;0.00
69205;PMS7003;56319;48.920;2.332;2023-03-31T12:19:09;0.50;0.00;0.00
69205;PMS7003;56319;48.920;2.332;2023-03-31T12:22:03;4.75;1.00;0.00
69205;PMS7003;56319;48.920;2.332;2023-03-31T12:24:51;0.00;0.00;0.00
69205;PMS7003;56319;48.920;2.332;2023-03-31T12:27:19;1.00;1.00;1.00
69205;PMS7003;56319;48.920;2.332;2023-03-31T12:30:09;0.75;0.75;0.00
69205;PMS7003;56319;48.920;2.332;2023-03-31T12:32:41;1.25;1.25;0.50
69205;PMS7003;56319;48.920;2.332;2023-03-31T12:41:07;3.75;1.00;0.00
69205;PMS7003;56319;48.920;2.332;2023-03-31T12:43:47;0.00;0.00;0.00
69205;PMS7003;56319;48.920;2.332;2023-03-31T12:52:40;2.75;0.00;0.00
69205;PMS7003;56319;48.920;2.332;2023-03-31T12:55:35;0.00;0.00;0.00
69205;PMS7003;56319;48.920;2.332;2023-03-31T13:01:07;2.00;0.00;0.00
69205;PMS7003;56319;48.920;2.332;2023-03-31T13:04:06;1.00;1.00;0.00
69205;PMS7003;56319;48.920;2.332;2023-03-31T13:06:49;1.25;0.00;0.00
69205;PMS7003;56319;48.920;2.332;2023-03-31T13:12:06;0.00;0.00;0.00
69205;PMS7003;56319;48.920;2.332;2023-03-31T13:14:35;1.75;0.00;0.00
69205;PMS7003;56319;48.920;2.332;2023-03-31T13:19:50;0.75;0.00;0.00
69205;PMS7003;56319;48.920;2.332;2023-03-31T13:27:58;1.00;0.00;0.00
69205;PMS7003;56319;48.920;2.332;2023-03-31T13:33:30;0.00;0.00;0.00
69205;PMS7003;56319;48.920;2.332;2023-03-31T13:48:05;0.00;0.00;0.00
69205;PMS7003;56319;48.920;2.332;2023-03-31T13:50:59;0.00;0.00;0.00
69205;PMS7003;56319;48.920;2.332;2023-03-31T13:53:56;2.00;0.00;0.00
69205;PMS7003;56319;48.920;2.332;2023-03-31T14:05:56;1.75;0.00;0.00
69205;PMS7003;56319;48.920;2.332;2023-03-31T14:08:32;0.75;0.75;0.00
69205;PMS7003;56319;48.920;2.332;2023-03-31T14:13:58;0.50;0.00;0.00
69205;PMS7003;56319;48.920;2.332;2023-03-31T14:16:27;0.00;0.00;0.00
69205;PMS7003;56319;48.920;2.332;2023-03-31T14:18:59;2.00;0.00;0.00
69205;PMS7003;56319;48.920;2.332;2023-03-31T14:21:45;1.00;0.00;0.00
69205;PMS7003;56319;48.920;2.332;2023-03-31T14:27:16;3.50;0.00;0.00
69205;PMS7003;56319;48.920;2.332;2023-03-31T14:36:07;0.00;0.00;0.00
69205;PMS7003;56319;48.920;2.332;2023-03-31T14:38:50;1.00;0.00;0.00
69205;PMS7003;56319;48.920;2.332;2023-03-31T14:41:18;0.00;0.00;0.00
69205;PMS7003;56319;48.920;2.332;2023-03-31T14:43:47;13.50;4.50;2.25
69205;PMS7003;56319;48.920;2.332;2023-03-31T14:46:18;3.75;1.00;1.00
69205;PMS7003;56319;48.920;2.332;2023-03-31T14:48:46;1.75;0.00;0.00
69205;PMS7003;56319;48.920;2.332;2023-03-31T14:51:13;0.50;0.50;0.25
69205;PMS7003;56319;48.920;2.332;2023-03-31T14:53:41;0.50;0.00;0.00
69205;PMS7003;56319;48.920;2.332;2023-03-31T14:56:08;1.25;1.00;0.00
69205;PMS7003;56319;48.920;2.332;2023-03-31T14:58:40;0.75;0.25;0.00
69205;PMS7003;56319;48.920;2.332;2023-03-31T15:01:08;0.75;0.00;0.00
69205;PMS7003;56319;48.920;2.332;2023-03-31T15:03:41;3.00;1.50;1.00
69205;PMS7003;56319;48.920;2.332;2023-03-31T15:06:08;3.50;1.00;0.75
69205;PMS7003;56319;48.920;2.332;2023-03-31T15:08:35;0.00;0.00;0.00
69205;PMS7003;56319;48.920;2.332;2023-03-31T15:11:03;3.00;1.00;0.50
69205;PMS7003;56319;48.920;2.332;2023-03-31T15:13:35;0.25;0.25;0.00
69205;PMS7003;56319;48.920;2.332;2023-03-31T15:18:56;1.00;0.75;0.00
69205;PMS7003;56319;48.920;2.332;2023-03-31T15:21:24;5.50;0.50;0.00
69205;PMS7003;56319;48.920;2.332;2023-03-31T15:23:54;0.25;0.00;0.00
69205;PMS7003;56319;48.920;2.332;2023-03-31T15:26:22;1.00;0.00;0.00
69205;PMS7003;56319;48.920;2.332;2023-03-31T15:28:56;0.25;0.00;0.00
69205;PMS7003;56319;48.920;2.332;2023-03-31T15:31:28;0.25;0.00;0.00
69205;PMS7003;56319;48.920;2.332;2023-03-31T15:33:54;0.00;0.00;0.00
69205;PMS7003;56319;48.920;2.332;2023-03-31T15:36:20;0.50;0.00;0.00
69205;PMS7003;56319;48.920;2.332;2023-03-31T15:38:46;3.00;0.00;0.00
69205;PMS7003;56319;48.920;2.332;2023-03-31T15:41:21;2.25;0.00;0.00
69205;PMS7003;56319;48.920;2.332;2023-03-31T15:43:47;1.50;0.25;0.00
69205;PMS7003;56319;48.920;2.332;2023-03-31T15:46:17;0.25;0.00;0.00
69205;PMS7003;56319;48.920;2.332;2023-03-31T15:48:49;0.50;0.00;0.00
69205;PMS7003;56319;48.920;2.332;2023-03-31T15:51:18;2.00;0.00;0.00
69205;PMS7003;56319;48.920;2.332;2023-03-31T15:53:49;3.50;0.00;0.00
69205;PMS7003;56319;48.920;2.332;2023-03-31T16:01:54;0.00;0.00;0.00
69205;PMS7003;56319;48.920;2.332;2023-03-31T16:04:24;1.00;0.00;0.00
69205;PMS7003;56319;48.920;2.332;2023-03-31T16:06:57;0.00;0.00;0.00
69205;PMS7003;56319;48.920;2.332;2023-03-31T16:12:22;0.00;0.00;0.00
69205;PMS7003;56319;48.920;2.332;2023-03-31T16:14:55;0.75;0.00;0.00
69205;PMS7003;56319;48.920;2.332;2023-03-31T16:17:26;0.00;0.00;0.00
69205;PMS7003;56319;48.920;2.332;2023-03-31T16:19:57;0.25;0.00;0.00
69205;PMS7003;56319;48.920;2.332;2023-03-31T16:22:33;1.00;0.00;0.00
69205;PMS7003;56319;48.920;2.332;2023-03-31T16:25:07;0.00;0.00;0.00
69205;PMS7003;56319;48.920;2.332;2023-03-31T16:27:37;0.00;0.00;0.00
69205;PMS7003;56319;48.920;2.332;2023-03-31T16:30:07;0.00;0.00;0.00
69205;PMS7003;56319;48.920;2.332;2023-03-31T16:32:35;0.00;0.00;0.00
69205;PMS7003;56319;48.920;2.332;2023-03-31T16:35:03;0.00;0.00;0.00
69205;PMS7003;56319;48.920;2.332;2023-03-31T16:37:30;2.25;0.00;0.00
69205;PMS7003;56319;48.920;2.332;2023-03-31T16:39:56;1.75;0.00;0.00
69205;PMS7003;56319;48.920;2.332;2023-03-31T16:42:21;0.00;0.00;0.00
69205;PMS7003;56319;48.920;2.332;2023-03-31T16:44:47;1.25;0.00;0.00
69205;PMS7003;56319;48.920;2.332;2023-03-31T16:47:13;0.00;0.00;0.00
69205;PMS7003;56319;48.920;2.332;2023-03-31T16:49:39;0.00;0.00;0.00
69205;PMS7003;56319;48.920;2.332;2023-03-31T16:52:05;0.00;0.00;0.00
69205;PMS7003;56319;48.920;2.332;2023-03-31T16:54:30;0.00;0.00;0.00
69205;PMS7003;56319;48.920;2.332;2023-03-31T16:56:56;0.75;0.00;0.00
69205;PMS7003;56319;48.920;2.332;2023-03-31T16:59:22;0.00;0.00;0.00
69205;PMS7003;56319;48.920;2.332;2023-03-31T17:01:49;0.75;0.00;0.00
69205;PMS7003;56319;48.920;2.332;2023-03-31T17:04:16;2.00;0.00;0.00
69205;PMS7003;56319;48.920;2.332;2023-03-31T17:06:42;0.75;0.00;0.00